Time;durP1;ratioP1;P1;durP2;ratioP2;P2;SDS_P1;SDS_P2;PMS_P1;PMS_P2;Temp;Humidity;BMP_temperature;BMP_pressure;BME280_temperature;BME280_humidity;BME280_pressure;Samples;Min_cycle;Max_cycle;Signal;HPM_P1;HPM_P2
2023/06/26 00:02:25;;;;;;;8.02;7.32;;;;;;;22.52;50.44;95658.38;4989667;28;20211;-87
2023/06/26 00:04:53;;;;;;;7.82;7.07;;;;;;;22.61;50.14;95655.06;4991220;28;20207;-87
2023/06/26 00:07:20;;;;;;;8.43;7.63;;;;;;;22.44;51.25;95653.59;4991500;28;20254;-87
2023/06/26 00:09:46;;;;;;;8.38;7.22;;;;;;;22.37;50.99;95648.56;4991194;28;20234;-87
2023/06/26 00:12:13;;;;;;;8.77;7.93;;;;;;;22.36;51.29;95657.47;4990079;28;20231;-87
2023/06/26 00:14:39;;;;;;;8.63;7.80;;;;;;;22.38;50.73;95658.81;4972348;28;20422;-87
2023/06/26 00:17:05;;;;;;;8.73;7.80;;;;;;;22.30;51.74;95661.09;4972278;28;20227;-87
2023/06/26 00:19:33;;;;;;;9.45;8.20;;;;;;;22.28;51.64;95666.59;4988846;28;20681;-88
2023/06/26 00:22:00;;;;;;;8.50;7.38;;;;;;;22.25;51.70;95655.78;4991314;28;20286;-87
2023/06/26 00:24:27;;;;;;;7.90;7.25;;;;;;;22.23;51.40;95648.16;4991290;28;20203;-87
2023/06/26 00:26:53;;;;;;;8.82;7.82;;;;;;;22.17;51.63;95666.72;4990420;28;20214;-87
2023/06/26 00:29:20;;;;;;;8.60;7.90;;;;;;;22.19;51.75;95657.56;4990784;28;20704;-87
2023/06/26 00:31:46;;;;;;;8.98;7.40;;;;;;;22.20;51.99;95661.78;4991026;28;20214;-87
2023/06/26 00:34:14;;;;;;;8.43;7.38;;;;;;;22.18;51.05;95665.69;4988847;28;20583;-87
2023/06/26 00:36:43;;;;;;;8.65;7.90;;;;;;;22.15;50.58;95664.34;4990760;28;20207;-87
2023/06/26 00:39:11;;;;;;;8.32;7.55;;;;;;;22.21;50.52;95662.56;4990895;28;20223;-86
2023/06/26 00:41:37;;;;;;;7.82;7.13;;;;;;;22.19;50.38;95662.81;4990452;28;20203;-87
2023/06/26 00:44:04;;;;;;;8.05;7.35;;;;;;;22.15;50.74;95659.09;4990883;28;20203;-87
2023/06/26 00:46:31;;;;;;;10.90;7.60;;;;;;;22.13;51.13;95663.03;4989283;28;20227;-88
2023/06/26 00:49:00;;;;;;;7.97;7.18;;;;;;;22.13;50.78;95661.16;4983420;28;20369;-86
2023/06/26 00:51:27;;;;;;;8.35;7.65;;;;;;;22.13;50.64;95669.03;4989173;28;20203;-87
2023/06/26 00:53:53;;;;;;;7.85;6.88;;;;;;;22.06;50.82;95665.84;4990742;28;20809;-87
2023/06/26 00:56:21;;;;;;;8.07;7.38;;;;;;;22.03;50.51;95666.31;4990386;28;20214;-87
2023/06/26 00:58:47;;;;;;;7.22;6.53;;;;;;;22.05;50.52;95665.03;4990907;28;20223;-87
2023/06/26 01:01:16;;;;;;;7.07;6.47;;;;;;;21.92;50.39;95668.03;4990719;28;20210;-87
2023/06/26 01:03:44;;;;;;;7.80;7.07;;;;;;;21.88;50.34;95661.69;4990140;28;20715;-86
2023/06/26 01:06:13;;;;;;;7.85;7.15;;;;;;;21.86;50.30;95658.50;4989048;28;20756;-86
2023/06/26 01:08:40;;;;;;;7.30;6.55;;;;;;;21.93;49.88;95663.56;4989184;28;20246;-87
2023/06/26 01:11:06;;;;;;;6.93;6.30;;;;;;;21.90;50.03;95661.44;4990251;28;20645;-86
2023/06/26 01:13:36;;;;;;;7.35;6.65;;;;;;;21.86;49.90;95655.09;4976358;28;20208;-87
2023/06/26 01:16:04;;;;;;;7.35;6.68;;;;;;;21.89;49.83;95658.03;4970925;28;20204;-87
2023/06/26 01:18:32;;;;;;;7.25;6.65;;;;;;;21.90;49.51;95656.19;4970704;28;20204;-87
2023/06/26 01:21:01;;;;;;;7.70;6.97;;;;;;;21.82;49.97;95657.41;4980133;28;20207;-87
2023/06/26 01:23:32;;;;;;;7.13;6.43;;;;;;;21.79;50.00;95660.50;4988332;28;20629;-87
2023/06/26 01:26:15;;;;;;;7.07;6.47;;;;;;;21.75;50.12;95661.22;4990245;28;20207;-88
2023/06/26 01:28:43;;;;;;;6.95;6.30;;;;;;;21.71;49.69;95661.75;4989841;28;20740;-87
2023/06/26 01:31:11;;;;;;;7.35;6.75;;;;;;;21.71;49.44;95656.50;4989986;28;20204;-87
2023/06/26 01:33:38;;;;;;;6.78;5.95;;;;;;;21.79;49.05;95647.41;4990186;28;20227;-87
2023/06/26 01:36:05;;;;;;;6.75;6.18;;;;;;;21.83;48.69;95653.75;4989795;28;20219;-87
2023/06/26 01:38:31;;;;;;;6.93;5.57;;;;;;;21.83;48.89;95658.19;4985153;28;20566;-86
2023/06/26 01:40:59;;;;;;;7.15;6.15;;;;;;;21.84;48.48;95655.34;4989529;28;20582;-87
2023/06/26 01:43:32;;;;;;;7.15;6.55;;;;;;;21.89;48.29;95652.78;4982713;28;20206;-87
2023/06/26 01:46:04;;;;;;;6.50;5.90;;;;;;;21.92;48.18;95648.88;4982734;28;20200;-87
2023/06/26 01:48:34;;;;;;;6.45;5.95;;;;;;;21.94;47.85;95639.69;4989608;28;20604;-87
2023/06/26 01:51:03;;;;;;;6.68;6.07;;;;;;;21.91;47.84;95642.84;4989446;28;20214;-86
2023/06/26 01:53:37;;;;;;;6.50;5.90;;;;;;;21.78;47.79;95645.03;4989717;28;20270;-86
2023/06/26 01:56:09;;;;;;;6.22;5.72;;;;;;;21.74;48.04;95651.81;4987430;28;20210;-88
2023/06/26 01:58:41;;;;;;;6.82;6.10;;;;;;;21.71;47.86;95642.59;4989505;28;20207;-87
2023/06/26 02:01:08;;;;;;;6.18;5.68;;;;;;;21.66;47.75;95648.56;4989698;28;20614;-87
2023/06/26 02:03:34;;;;;;;6.55;5.95;;;;;;;21.64;47.85;95642.78;4989656;28;20230;-86
2023/06/26 02:06:01;;;;;;;6.00;5.50;;;;;;;21.69;48.06;95650.72;4989238;28;20214;-86
2023/06/26 02:08:27;;;;;;;7.22;6.15;;;;;;;21.68;48.12;95648.34;4989609;28;20295;-86
2023/06/26 02:10:53;;;;;;;6.63;5.90;;;;;;;21.68;48.00;95645.72;4987046;28;20250;-87
2023/06/26 02:13:20;;;;;;;6.78;6.18;;;;;;;21.65;48.02;95647.00;4989087;28;20211;-87
2023/06/26 02:15:48;;;;;;;6.32;5.82;;;;;;;21.59;48.26;95650.56;4989314;28;20200;-87
2023/06/26 02:18:14;;;;;;;6.10;5.60;;;;;;;21.58;48.05;95646.38;4989145;28;20588;-86
2023/06/26 02:20:44;;;;;;;6.32;5.70;;;;;;;21.57;47.74;95644.00;4988281;28;20223;-87
2023/06/26 02:23:11;;;;;;;6.65;5.97;;;;;;;21.54;48.10;95647.13;4989291;28;20226;-87
2023/06/26 02:25:37;;;;;;;6.78;6.00;;;;;;;21.49;48.22;95649.66;4988844;28;20720;-87
2023/06/26 02:28:07;;;;;;;6.68;6.00;;;;;;;21.49;48.17;95654.91;4987379;28;20612;-88
2023/06/26 02:30:33;;;;;;;6.65;6.05;;;;;;;21.48;48.16;95651.50;4988987;28;20231;-89
2023/06/26 02:33:01;;;;;;;6.70;6.07;;;;;;;21.51;47.87;95652.84;4989495;28;20230;-87
2023/06/26 02:35:27;;;;;;;6.35;5.75;;;;;;;21.54;48.13;95657.59;4989373;28;20586;-87
2023/06/26 02:37:54;;;;;;;6.90;6.20;;;;;;;21.51;48.36;95655.47;4989431;28;20204;-87
2023/06/26 02:40:20;;;;;;;8.40;5.65;;;;;;;21.51;48.24;95652.84;4981392;28;20212;-87
2023/06/26 02:42:47;;;;;;;6.70;6.03;;;;;;;21.50;48.30;95648.63;4986723;28;20216;-87
2023/06/26 02:45:13;;;;;;;7.22;6.60;;;;;;;21.47;48.29;95651.75;4988827;28;20746;-86
2023/06/26 02:47:39;;;;;;;7.15;6.30;;;;;;;21.45;48.38;95649.34;4988795;28;20208;-87
2023/06/26 02:50:08;;;;;;;6.25;5.68;;;;;;;21.46;48.31;95653.56;4988915;28;20227;-87
2023/06/26 02:52:35;;;;;;;7.68;6.45;;;;;;;21.47;48.06;95644.66;4988834;28;20677;-86
2023/06/26 02:55:01;;;;;;;6.97;6.38;;;;;;;21.49;47.99;95650.47;4988692;28;20213;-86
2023/06/26 02:57:28;;;;;;;6.30;5.80;;;;;;;21.54;47.77;95654.97;4989234;28;20207;-86
2023/06/26 02:59:54;;;;;;;6.80;5.85;;;;;;;21.55;47.58;95648.72;4986767;28;20219;-86
2023/06/26 03:02:20;;;;;;;6.53;6.00;;;;;;;21.56;47.46;95650.25;4988636;28;20585;-87
2023/06/26 03:04:47;;;;;;;7.30;6.70;;;;;;;21.57;47.54;95649.22;4988854;28;20581;-86
2023/06/26 03:07:15;;;;;;;7.10;6.40;;;;;;;21.55;47.59;95651.31;4988976;28;20550;-87
2023/06/26 03:09:41;;;;;;;6.03;5.53;;;;;;;21.54;47.78;95647.13;4989105;28;20231;-87
2023/06/26 03:12:10;;;;;;;7.47;6.45;;;;;;;21.56;47.42;95650.25;4986466;28;20211;-86
2023/06/26 03:14:36;;;;;;;6.97;6.38;;;;;;;21.52;47.33;95649.97;4969620;28;20212;-86
2023/06/26 03:17:03;;;;;;;9.60;6.50;;;;;;;21.53;47.25;95651.56;4987439;28;20203;-86
2023/06/26 03:19:30;;;;;;;6.82;6.22;;;;;;;21.55;47.07;95651.31;4988257;28;20219;-87
2023/06/26 03:21:56;;;;;;;6.75;6.15;;;;;;;21.52;47.07;95646.56;4988638;28;20207;-87
2023/06/26 03:24:24;;;;;;;6.88;6.20;;;;;;;21.51;47.20;95647.59;4988829;28;20233;-86
2023/06/26 03:26:51;;;;;;;7.20;6.50;;;;;;;21.53;47.29;95645.53;4988491;28;20202;-87
2023/06/26 03:29:17;;;;;;;7.05;6.38;;;;;;;21.52;47.25;95651.81;4988554;28;20219;-87
2023/06/26 03:31:44;;;;;;;6.82;6.22;;;;;;;21.51;47.00;95647.59;4983706;28;20665;-86
2023/06/26 03:34:10;;;;;;;6.78;6.18;;;;;;;21.45;47.75;95654.59;4992299;28;20208;-86
2023/06/26 03:36:36;;;;;;;7.55;6.65;;;;;;;21.49;47.32;95649.66;4983912;28;20196;-87
2023/06/26 03:39:04;;;;;;;6.68;6.18;;;;;;;21.48;47.45;95653.31;4992159;28;20223;-87
2023/06/26 03:41:31;;;;;;;6.50;5.90;;;;;;;21.51;47.24;95652.84;4992448;28;20582;-87
2023/06/26 03:44:00;;;;;;;7.15;6.55;;;;;;;21.49;47.31;95649.66;4992521;28;20210;-86
2023/06/26 03:46:26;;;;;;;7.28;6.57;;;;;;;21.55;46.97;95648.72;4991805;28;20204;-87
2023/06/26 03:48:53;;;;;;;7.38;6.70;;;;;;;21.52;46.91;95651.81;4990318;28;20227;-86
2023/06/26 03:51:19;;;;;;;7.55;6.85;;;;;;;21.45;47.15;95651.19;4991804;28;20231;-87
2023/06/26 03:53:46;;;;;;;7.30;6.22;;;;;;;21.46;46.97;95650.94;4991883;28;20204;-87
2023/06/26 03:56:13;;;;;;;7.10;6.40;;;;;;;21.43;46.89;95654.03;4991766;28;20204;-86
2023/06/26 03:58:41;;;;;;;6.80;6.20;;;;;;;21.50;47.01;95648.63;4991630;28;20230;-87
2023/06/26 04:01:08;;;;;;;6.70;6.10;;;;;;;21.53;47.20;95653.41;4991363;28;20700;-88
2023/06/26 04:03:35;;;;;;;9.30;5.90;;;;;;;21.57;46.90;95647.41;4986607;28;20216;-87
2023/06/26 04:06:01;;;;;;;6.95;6.35;;;;;;;21.61;46.98;95645.88;4991519;28;20211;-86
2023/06/26 04:08:27;;;;;;;6.90;6.30;;;;;;;21.62;47.01;95646.69;4991588;28;20211;-87
2023/06/26 04:10:57;;;;;;;6.43;5.93;;;;;;;21.65;46.81;95648.81;4991485;28;20234;-87
2023/06/26 04:13:23;;;;;;;7.25;6.65;;;;;;;21.68;46.76;95654.38;4991525;28;20630;-88
2023/06/26 04:15:51;;;;;;;6.95;6.35;;;;;;;21.73;46.62;95658.09;4991450;28;20203;-88
2023/06/26 04:18:20;;;;;;;6.88;6.28;;;;;;;21.76;46.65;95647.88;4991848;28;20202;-86
2023/06/26 04:21:06;;;;;;;7.32;6.30;;;;;;;21.75;46.46;95656.00;4988768;28;20219;-86
2023/06/26 04:23:32;;;;;;;6.63;6.03;;;;;;;21.78;46.45;95652.88;4991385;28;20207;-86
2023/06/26 04:25:59;;;;;;;7.00;6.30;;;;;;;21.82;46.45;95651.38;4990920;28;20211;-87
2023/06/26 04:28:26;;;;;;;8.95;6.28;;;;;;;21.90;46.26;95651.75;4990796;28;20279;-88
2023/06/26 04:30:54;;;;;;;7.13;6.50;;;;;;;21.95;46.19;95653.59;4990417;28;20227;-87
2023/06/26 04:33:20;;;;;;;7.05;6.45;;;;;;;22.00;45.83;95651.88;4982848;28;20231;-87
2023/06/26 04:35:49;;;;;;;6.85;6.25;;;;;;;22.08;45.91;95655.09;4989435;28;20204;-88
2023/06/26 04:38:15;;;;;;;10.38;6.43;;;;;;;22.09;45.88;95651.44;4991053;28;20289;-87
2023/06/26 04:40:42;;;;;;;6.97;6.30;;;;;;;22.16;45.78;95659.88;4990594;28;20247;-87
2023/06/26 04:43:09;;;;;;;7.95;7.25;;;;;;;22.20;45.53;95656.53;4989732;28;20204;-88
2023/06/26 04:45:35;;;;;;;7.53;6.82;;;;;;;22.26;45.62;95658.16;4990805;28;20203;-87
2023/06/26 04:48:03;;;;;;;7.30;6.70;;;;;;;22.28;45.43;95650.84;4990807;28;20207;-86
2023/06/26 04:50:31;;;;;;;7.07;6.47;;;;;;;22.29;45.46;95647.19;4990937;28;20573;-88
2023/06/26 04:52:57;;;;;;;7.65;7.03;;;;;;;22.35;45.20;95654.03;4986051;28;20222;-87
2023/06/26 04:55:25;;;;;;;7.47;6.78;;;;;;;22.38;45.04;95656.19;4990147;28;20204;-87
2023/06/26 04:57:52;;;;;;;6.97;6.38;;;;;;;22.45;44.88;95652.56;4979769;28;20239;-87
2023/06/26 05:00:22;;;;;;;6.82;6.10;;;;;;;22.44;44.93;95649.16;4990636;28;20226;-87
2023/06/26 05:02:49;;;;;;;7.13;6.53;;;;;;;22.54;44.66;95656.31;4990741;28;20207;-87
2023/06/26 05:05:19;;;;;;;9.35;6.53;;;;;;;22.60;44.71;95652.69;4990267;28;20688;-87
2023/06/26 05:07:45;;;;;;;6.43;5.82;;;;;;;22.65;44.76;95658.00;4988543;28;20210;-87
2023/06/26 05:10:12;;;;;;;10.27;6.57;;;;;;;22.73;44.88;95650.44;4987553;28;20615;-87
2023/06/26 05:12:38;;;;;;;7.32;6.60;;;;;;;22.81;44.67;95649.22;4989647;28;20218;-87
2023/06/26 05:15:09;;;;;;;7.13;6.25;;;;;;;22.85;44.92;95649.50;4990139;28;20669;-86
2023/06/26 05:17:35;;;;;;;6.60;6.10;;;;;;;22.87;44.84;95652.69;4990573;28;20210;-87
2023/06/26 05:20:03;;;;;;;6.90;6.30;;;;;;;22.92;44.78;95650.06;4989318;28;20581;-87
2023/06/26 05:22:35;;;;;;;8.05;6.28;;;;;;;23.03;44.61;95655.16;4990357;28;20291;-87
2023/06/26 05:25:02;;;;;;;6.65;6.10;;;;;;;23.12;44.58;95652.84;4988985;28;20203;-87
2023/06/26 05:27:29;;;;;;;7.10;6.50;;;;;;;23.14;44.27;95653.38;4989789;28;20206;-88
2023/06/26 05:29:56;;;;;;;9.40;6.57;;;;;;;23.20;44.34;95659.47;4981934;28;20219;-87
2023/06/26 05:32:24;;;;;;;7.32;6.72;;;;;;;23.26;44.34;95654.00;4990380;28;20203;-87
2023/06/26 05:34:54;;;;;;;6.80;6.20;;;;;;;23.26;44.16;95661.88;4989680;28;20208;-88
2023/06/26 05:37:22;;;;;;;7.18;6.57;;;;;;;23.25;44.26;95655.03;4989940;28;20211;-87
2023/06/26 05:39:51;;;;;;;6.80;6.20;;;;;;;23.29;44.02;95660.53;4989451;28;20259;-87
2023/06/26 05:42:18;;;;;;;7.00;6.30;;;;;;;23.24;43.93;95652.66;4988515;28;20581;-87
2023/06/26 05:44:44;;;;;;;6.68;6.13;;;;;;;23.20;44.34;95647.13;4989965;28;20668;-88
2023/06/26 05:47:11;;;;;;;7.38;6.20;;;;;;;23.36;44.34;95658.50;4989526;28;20202;-87
2023/06/26 05:49:37;;;;;;;6.65;6.03;;;;;;;23.51;44.46;95657.78;4989510;28;20227;-86
2023/06/26 05:52:04;;;;;;;6.50;5.90;;;;;;;23.61;44.03;95661.28;4970109;28;20228;-86
2023/06/26 05:54:31;;;;;;;6.80;6.20;;;;;;;23.62;43.84;95665.50;4970179;28;20216;-87
2023/06/26 05:57:00;;;;;;;6.90;6.30;;;;;;;23.75;44.58;95665.03;4976958;28;20202;-87
2023/06/26 05:59:27;;;;;;;7.15;6.45;;;;;;;23.84;44.39;95667.16;4989888;28;20250;-86
2023/06/26 06:01:54;;;;;;;6.72;6.15;;;;;;;23.82;44.59;95662.16;4989505;28;20207;-87
2023/06/26 06:04:20;;;;;;;7.22;6.35;;;;;;;23.88;44.63;95668.22;4989307;28;20793;-86
2023/06/26 06:06:47;;;;;;;7.25;6.55;;;;;;;23.91;45.13;95655.34;4989593;28;20669;-87
2023/06/26 06:09:13;;;;;;;6.80;6.20;;;;;;;24.03;44.90;95650.66;4989626;28;20231;-87
2023/06/26 06:11:40;;;;;;;6.88;6.28;;;;;;;24.10;44.85;95651.19;4989165;28;20274;-87
2023/06/26 06:14:08;;;;;;;7.70;6.68;;;;;;;24.15;45.01;95655.69;4984907;28;20211;-87
2023/06/26 06:16:34;;;;;;;7.50;6.30;;;;;;;24.18;45.04;95651.75;4989356;28;20204;-87
2023/06/26 06:19:02;;;;;;;7.43;6.28;;;;;;;24.21;45.40;95649.38;4988881;28;20223;-87
2023/06/26 06:21:29;;;;;;;7.57;6.88;;;;;;;24.32;45.41;95644.94;4988804;28;20269;-86
2023/06/26 06:23:55;;;;;;;8.75;6.22;;;;;;;24.44;45.02;95648.91;4984106;28;20203;-87
2023/06/26 06:26:22;;;;;;;9.90;6.45;;;;;;;24.52;45.19;95652.06;4975837;28;20200;-87
2023/06/26 06:28:48;;;;;;;6.97;6.22;;;;;;;24.58;44.90;95640.50;4986120;28;20206;-86
2023/06/26 06:31:16;;;;;;;7.00;6.40;;;;;;;24.61;45.13;95651.31;4989640;28;20230;-87
2023/06/26 06:33:42;;;;;;;6.57;5.97;;;;;;;24.68;44.75;95645.75;4989029;28;20330;-87
2023/06/26 06:36:09;;;;;;;7.25;6.55;;;;;;;24.72;45.20;95655.50;4989613;28;20588;-88
2023/06/26 06:38:35;;;;;;;6.47;5.70;;;;;;;24.76;44.13;95647.88;4989482;28;20210;-87
2023/06/26 06:41:02;;;;;;;5.90;5.40;;;;;;;24.88;43.66;95651.03;4989186;28;20206;-87
2023/06/26 06:43:31;;;;;;;6.20;5.70;;;;;;;24.99;42.93;95655.28;4989319;28;20210;-87
2023/06/26 06:45:57;;;;;;;6.13;5.63;;;;;;;25.02;43.04;95646.03;4986981;28;20591;-87
2023/06/26 06:48:25;;;;;;;6.22;5.63;;;;;;;25.09;42.92;95649.97;4988708;28;20269;-87
2023/06/26 06:50:52;;;;;;;5.95;5.45;;;;;;;25.11;41.86;95644.44;4988513;28;20727;-88
2023/06/26 06:53:20;;;;;;;6.00;5.40;;;;;;;25.19;41.86;95645.75;4988982;28;20207;-87
2023/06/26 06:55:46;;;;;;;5.90;5.45;;;;;;;25.23;41.48;95652.06;4989251;28;20222;-87
2023/06/26 06:58:13;;;;;;;6.05;5.07;;;;;;;25.29;41.84;95651.78;4988872;28;20207;-87
2023/06/26 07:00:39;;;;;;;6.38;5.78;;;;;;;25.36;41.11;95651.50;4986794;28;20219;-87
2023/06/26 07:03:06;;;;;;;5.80;5.30;;;;;;;25.41;41.11;95654.91;4985843;28;20608;-87
2023/06/26 07:05:41;;;;;;;6.50;5.85;;;;;;;25.42;41.49;95645.94;4989111;28;20207;-88
2023/06/26 07:08:10;;;;;;;6.30;5.57;;;;;;;25.44;41.36;95649.09;4991898;28;20199;-87
2023/06/26 07:10:37;;;;;;;6.22;5.63;;;;;;;25.53;41.73;95651.97;4992737;28;20235;-89
2023/06/26 07:13:06;;;;;;;5.90;5.32;;;;;;;25.57;41.25;95649.59;4992860;28;20236;-87
2023/06/26 07:15:32;;;;;;;6.22;5.72;;;;;;;25.67;41.35;95646.94;4992857;28;20215;-87
2023/06/26 07:17:59;;;;;;;6.70;5.68;;;;;;;25.76;41.52;95650.63;4990806;28;20238;-88
2023/06/26 07:20:33;;;;;;;6.15;5.60;;;;;;;25.91;41.48;95644.47;4991597;28;20223;-87
2023/06/26 07:23:04;;;;;;;6.40;5.72;;;;;;;25.91;41.04;95652.38;4985021;28;20207;-87
2023/06/26 07:25:31;;;;;;;6.20;5.60;;;;;;;25.96;41.26;95642.59;4992392;28;20211;-88
2023/06/26 07:27:57;;;;;;;7.50;5.50;;;;;;;25.97;41.00;95641.56;4985441;28;20227;-87
2023/06/26 07:30:25;;;;;;;6.85;5.65;;;;;;;26.09;41.51;95647.28;4991991;28;20227;-87
2023/06/26 07:32:52;;;;;;;5.95;5.28;;;;;;;26.14;41.32;95647.25;4990867;28;20210;-88
2023/06/26 07:35:18;;;;;;;6.53;5.93;;;;;;;26.14;40.94;95651.75;4988598;28;20211;-87
2023/06/26 07:37:45;;;;;;;7.78;6.03;;;;;;;26.19;41.51;95653.53;4991592;28;20238;-88
2023/06/26 07:40:12;;;;;;;6.10;5.50;;;;;;;26.23;41.74;95652.72;4991975;28;20230;-88
2023/06/26 07:42:40;;;;;;;6.32;5.72;;;;;;;26.31;41.36;95646.13;4992211;28;20204;-88
2023/06/26 07:45:10;;;;;;;6.25;5.75;;;;;;;26.34;41.44;95649.03;4992139;28;20211;-87
2023/06/26 07:47:37;;;;;;;6.00;5.55;;;;;;;26.44;41.93;95648.94;4992101;28;20214;-87
2023/06/26 07:50:04;;;;;;;6.72;5.70;;;;;;;26.48;41.52;95654.47;4989999;28;20620;-88
2023/06/26 07:52:30;;;;;;;6.45;5.95;;;;;;;26.64;41.27;95655.91;4991201;28;20600;-87
2023/06/26 07:54:57;;;;;;;6.65;6.13;;;;;;;26.78;41.38;95659.50;4991351;28;20270;-88
2023/06/26 07:57:25;;;;;;;6.18;5.68;;;;;;;26.79;40.73;95647.88;4991552;28;20759;-87
2023/06/26 07:59:52;;;;;;;6.70;6.10;;;;;;;26.81;41.06;95652.88;4991293;28;20873;-87
2023/06/26 08:02:18;;;;;;;6.35;5.75;;;;;;;26.94;41.42;95646.97;4991425;28;20740;-88
2023/06/26 08:04:44;;;;;;;6.22;5.63;;;;;;;27.08;41.74;95655.06;4991593;28;20207;-88
2023/06/26 08:07:11;;;;;;;6.47;5.97;;;;;;;27.12;40.83;95643.66;4989141;28;20207;-86
2023/06/26 08:09:37;;;;;;;6.68;5.97;;;;;;;27.15;40.24;95642.28;4991710;28;20228;-88
2023/06/26 08:12:04;;;;;;;6.30;5.80;;;;;;;27.23;40.49;95644.34;4991375;28;20231;-87
2023/06/26 08:14:32;;;;;;;6.72;6.13;;;;;;;27.25;40.54;95633.47;4991445;28;20590;-87
2023/06/26 08:16:59;;;;;;;6.22;5.72;;;;;;;27.35;40.61;95636.00;4987651;28;20734;-88
2023/06/26 08:19:26;;;;;;;6.65;6.10;;;;;;;27.41;40.52;95640.97;4986392;28;20219;-87
2023/06/26 08:21:53;;;;;;;6.28;5.68;;;;;;;27.62;41.07;95636.25;4989517;28;20199;-87
2023/06/26 08:24:20;;;;;;;6.50;6.00;;;;;;;27.77;40.06;95636.06;4991080;28;20204;-88
2023/06/26 08:26:47;;;;;;;6.10;5.60;;;;;;;27.94;39.40;95637.44;4990874;28;20292;-87
2023/06/26 08:29:13;;;;;;;6.93;6.25;;;;;;;28.02;39.20;95642.13;4990733;28;20231;-89
2023/06/26 08:31:43;;;;;;;6.25;5.82;;;;;;;28.09;39.16;95643.34;4990905;28;20228;-87
2023/06/26 08:34:14;;;;;;;6.72;5.90;;;;;;;28.24;39.09;95638.94;4991039;28;20656;-87
2023/06/26 08:36:40;;;;;;;6.55;5.88;;;;;;;28.19;38.43;95645.06;4990419;28;20207;-87
2023/06/26 08:39:08;;;;;;;6.05;5.50;;;;;;;28.31;39.28;95634.06;4985880;28;20235;-87
2023/06/26 08:41:35;;;;;;;6.50;5.90;;;;;;;28.48;39.54;95635.09;4954438;28;20310;-87
2023/06/26 08:44:02;;;;;;;6.25;5.75;;;;;;;28.67;39.89;95629.03;4990745;28;20351;-88
2023/06/26 08:46:29;;;;;;;6.30;5.70;;;;;;;28.83;38.73;95627.72;4990986;28;20204;-87
2023/06/26 08:48:59;;;;;;;6.35;5.80;;;;;;;28.97;38.27;95636.47;4990735;28;20247;-88
2023/06/26 08:51:28;;;;;;;6.20;5.70;;;;;;;28.97;36.81;95628.53;4990511;28;20223;-88
2023/06/26 08:53:59;;;;;;;5.93;5.45;;;;;;;29.07;37.74;95628.34;4985821;28;20214;-88
2023/06/26 08:56:32;;;;;;;5.63;5.22;;;;;;;29.10;36.67;95630.41;4986139;28;20743;-88
2023/06/26 08:58:58;;;;;;;6.13;5.63;;;;;;;29.07;36.19;95620.38;4990324;28;20223;-87
2023/06/26 09:01:25;;;;;;;5.95;5.35;;;;;;;29.18;36.64;95619.13;4990015;28;20200;-88
2023/06/26 09:03:52;;;;;;;5.57;5.18;;;;;;;29.27;37.08;95626.41;4990011;28;20207;-87
2023/06/26 09:06:24;;;;;;;6.75;5.82;;;;;;;29.49;36.10;95615.91;4990270;28;20215;-87
2023/06/26 09:08:51;;;;;;;6.13;5.60;;;;;;;29.51;36.06;95616.41;4990217;28;20199;-88
2023/06/26 09:11:17;;;;;;;6.15;5.65;;;;;;;29.67;36.23;95615.03;4987714;28;20227;-87
2023/06/26 09:13:45;;;;;;;5.95;5.35;;;;;;;29.82;36.60;95612.09;4981540;28;20215;-88
2023/06/26 09:16:12;;;;;;;5.78;5.35;;;;;;;30.01;35.90;95608.53;4989702;28;20239;-88
2023/06/26 09:18:38;;;;;;;5.68;5.28;;;;;;;30.20;35.89;95609.94;4989950;28;20603;-88
2023/06/26 09:21:08;;;;;;;10.45;5.72;;;;;;;30.28;34.41;95603.13;4989167;28;20196;-87
2023/06/26 09:23:36;;;;;;;5.70;5.30;;;;;;;30.22;33.89;95601.66;4990026;28;20669;-88
2023/06/26 09:26:03;;;;;;;5.35;4.95;;;;;;;30.38;34.43;95597.59;4988556;28;20203;-88
2023/06/26 09:28:31;;;;;;;5.55;5.05;;;;;;;30.50;34.60;95605.00;4989161;28;20206;-89
2023/06/26 09:31:01;;;;;;;5.50;5.03;;;;;;;30.48;32.05;95593.88;4989012;28;20317;-88
2023/06/26 09:33:28;;;;;;;5.20;4.70;;;;;;;30.67;32.54;95589.19;4989515;28;20207;-88
2023/06/26 09:35:54;;;;;;;5.60;4.55;;;;;;;30.73;31.73;95587.22;4989186;28;20213;-89
2023/06/26 09:38:21;;;;;;;4.85;4.50;;;;;;;30.85;30.98;95590.88;4989570;28;20380;-88
2023/06/26 09:41:46;;;;;;;;;;;;;;;;;;;;;
2023/06/26 09:45:20;;;;;;;4.60;4.30;;;;;;;31.17;30.72;95581.03;4987350;28;20215;-87
2023/06/26 09:51:49;;;;;;;4.43;4.05;;;;;;;31.43;30.07;95581.91;4987827;28;20231;-88
2023/06/26 09:54:19;;;;;;;4.45;4.15;;;;;;;31.56;30.30;95580.97;4984667;28;20265;-88
2023/06/26 09:56:47;;;;;;;4.90;4.50;;;;;;;31.30;30.20;95571.38;4989431;28;20623;-88
2023/06/26 09:59:14;;;;;;;4.70;4.40;;;;;;;31.38;30.38;95571.38;4987390;28;20223;-88
2023/06/26 10:02:47;;;;;;;;;;;;;;;;;;;;;
2023/06/26 10:09:30;;;;;;;4.18;3.85;;;;;;;31.85;29.58;95566.34;4853190;29;20656;-88
2023/06/26 10:19:33;;;;;;;4.05;3.83;;;;;;;31.34;29.71;95570.47;4985911;28;20265;-88
2023/06/26 10:22:42;;;;;;;;;;;;;;;;;;;;;
2023/06/26 10:25:38;;;;;;;4.18;3.88;;;;;;;31.10;29.56;95567.38;4989273;28;20222;-88
2023/06/26 10:52:17;;;;;;;6.30;4.20;;;;;;;32.70;27.51;95547.97;4776883;29;20296;-88
2023/06/26 10:58:47;;;;;;;4.15;3.85;;;;;;;32.74;27.98;95538.25;4820769;29;20397;-88
2023/06/26 11:45:48;;;;;;;5.90;5.47;;;;;;;32.92;28.77;95537.09;5118362;27;20199;-88
2023/06/26 11:49:12;;;;;;;;;;;;;;;;;;;;;
2023/06/26 11:51:50;;;;;;;5.30;4.80;;;;;;;32.76;28.89;95539.50;5124206;28;20574;-88
2023/06/26 12:02:02;;;;;;;;;;;;;;;;;;;;;
2023/06/26 12:11:52;;;;;;;;;;;;;;;;;;;;;
2023/06/26 12:14:48;;;;;;;5.45;4.95;;;;;;;33.19;27.16;95523.31;5105604;28;20568;-89
2023/06/26 12:17:24;;;;;;;5.22;4.60;;;;;;;32.95;27.95;95528.44;5105433;28;20219;-88
2023/06/26 12:20:00;;;;;;;4.60;4.30;;;;;;;33.14;28.70;95534.16;5105929;28;20296;-88
2023/06/26 12:25:30;;;;;;;4.95;4.55;;;;;;;33.36;27.69;95529.69;5122612;27;20289;-88
2023/06/26 12:28:46;;;;;;;5.32;4.82;;;;;;;33.42;27.57;95531.09;5129835;27;20195;-88
2023/06/26 12:32:02;;;;;;;5.75;5.05;;;;;;;33.50;27.64;95519.56;5124342;28;20248;-90
2023/06/26 12:38:47;;;;;;;5.28;4.80;;;;;;;33.55;26.79;95519.38;4960447;28;20224;-88
2023/06/26 12:44:47;;;;;;;5.22;4.82;;;;;;;33.04;26.92;95523.88;5043443;28;20199;-88
2023/06/26 12:51:27;;;;;;;;;;;;;;;;;;;;;
2023/06/26 12:57:50;;;;;;;5.40;4.90;;;;;;;32.64;28.12;95514.56;5024739;28;20284;-88
2023/06/26 13:04:27;;;;;;;5.55;5.15;;;;;;;33.08;27.38;95513.34;5093038;28;20226;-88
2023/06/26 13:07:27;;;;;;;5.65;5.25;;;;;;;33.26;27.34;95504.19;5110614;28;20648;-88
2023/06/26 13:10:17;;;;;;;5.93;5.25;;;;;;;33.14;27.92;95512.81;5079656;28;20218;-88
2023/06/26 13:28:38;;;;;;;7.25;6.00;;;;;;;33.46;28.30;95484.72;5113407;27;20202;-89
2023/06/26 13:31:05;;;;;;;5.88;5.47;;;;;;;33.46;28.10;95489.28;5109351;28;20728;-88
2023/06/26 13:56:57;;;;;;;8.93;6.43;;;;;;;32.83;29.40;95475.00;5026232;28;20210;-85
2023/06/26 14:00:23;;;;;;;;;;;;;;;;;;;;;
2023/06/26 14:03:49;;;;;;;6.20;5.68;;;;;;;33.24;28.86;95477.00;5092098;28;20665;-85
2023/06/26 14:10:34;;;;;;;;;;;;;;;;;;;;;
2023/06/26 14:13:27;;;;;;;5.80;5.40;;;;;;;33.21;28.82;95459.72;5078341;28;20239;-86
2023/06/26 14:36:55;;;;;;;6.82;6.32;;;;;;;32.91;28.39;95452.81;4965110;28;20278;-85
2023/06/26 14:53:23;;;;;;;6.57;5.93;;;;;;;32.16;30.13;95454.28;4917233;29;20297;-86
2023/06/26 14:56:00;;;;;;;6.47;5.68;;;;;;;32.04;29.95;95448.84;4947875;29;20200;-86
2023/06/26 14:58:35;;;;;;;6.97;5.35;;;;;;;32.08;29.54;95439.91;5028567;28;20221;-85
2023/06/26 15:01:15;;;;;;;;;;;;;;;;;;;;;
2023/06/26 15:04:16;;;;;;;7.32;6.32;;;;;;;32.42;29.54;95451.59;5028671;28;20201;-85
2023/06/26 15:07:15;;;;;;;6.57;6.07;;;;;;;32.13;29.22;95444.28;4997495;28;20210;-85
2023/06/26 15:10:07;;;;;;;6.22;5.72;;;;;;;32.30;29.17;95438.16;4986013;28;20227;-86
2023/06/26 15:13:16;;;;;;;6.43;5.82;;;;;;;32.29;29.40;95436.59;4992204;28;20209;-86
2023/06/26 15:19:08;;;;;;;6.05;5.45;;;;;;;31.91;29.53;95451.38;5046822;28;20320;-85
2023/06/26 15:22:52;;;;;;;6.10;5.50;;;;;;;31.72;29.49;95442.13;5046180;28;20608;-85
2023/06/26 15:28:35;;;;;;;6.00;5.50;;;;;;;31.31;29.32;95442.56;5040003;28;20683;-86
2023/06/26 15:31:11;;;;;;;5.88;5.38;;;;;;;31.34;29.37;95441.94;5028205;28;20280;-85
2023/06/26 15:33:57;;;;;;;5.97;5.50;;;;;;;31.28;29.84;95438.63;5028397;28;20561;-85
2023/06/26 15:39:40;;;;;;;5.82;5.32;;;;;;;31.04;31.00;95438.25;5045830;28;20698;-85